createdAt,value
2018-12-23T00:32:45.329Z,50.1
2018-12-23T00:33:36.606Z,50.1
2018-12-23T00:36:13.683Z,50
2018-12-23T00:37:08.301Z,50
2018-12-23T00:37:45.706Z,50
2018-12-23T00:38:34.353Z,50
2018-12-23T05:02:02.997Z,61.7
2018-12-23T05:02:52.577Z,61.7
2018-12-23T05:03:48.039Z,61.7
2018-12-23T05:04:33.221Z,61.6
2018-12-23T05:05:22.951Z,61.6
2018-12-23T05:06:13.349Z,61.6
2018-12-23T05:07:02.531Z,61.6
2018-12-23T05:07:52.609Z,61.6
2018-12-23T05:08:42.917Z,61.6
2018-12-23T05:09:33.385Z,61.6
2018-12-23T05:10:23.556Z,61.6
2018-12-23T05:11:13.029Z,61.6
2018-12-23T05:12:03.166Z,61.6
2018-12-23T05:12:52.904Z,61.6
2018-12-23T05:13:42.702Z,61.6
2018-12-23T05:14:33.287Z,61.6
2018-12-23T05:15:22.871Z,61.6
2018-12-23T05:16:13.437Z,61.6
2018-12-23T05:17:03.489Z,61.6
2018-12-23T05:17:54.286Z,61.6
2018-12-23T05:18:44.172Z,61.5
2018-12-23T05:19:33.746Z,61.6
2018-12-23T05:20:23.961Z,61.6
2018-12-23T05:21:13.758Z,61.5
2018-12-23T05:22:04.679Z,61.6
2018-12-23T05:22:54.950Z,61.5
2018-12-23T05:23:43.936Z,61.5
2018-12-23T05:24:33.134Z,61.5
2018-12-23T05:25:23.177Z,61.5
2018-12-23T05:26:14.723Z,61.5
2018-12-23T05:27:04.138Z,61.5
2018-12-23T05:27:54.465Z,61.5
2018-12-23T05:28:44.541Z,61.5
2018-12-23T05:29:34.616Z,61.4
2018-12-23T05:30:24.640Z,61.4
2018-12-23T05:31:14.425Z,61.4
2018-12-23T05:32:04.486Z,61.4
2018-12-23T05:32:55.375Z,61.4
2018-12-23T05:33:44.861Z,61.4
2018-12-23T05:34:34.394Z,61.4
2018-12-23T05:35:24.710Z,61.4
2018-12-23T05:36:14.475Z,61.4
2018-12-23T05:37:04.522Z,61.4
2018-12-23T05:37:55.691Z,61.4
2018-12-23T05:38:44.930Z,61.4
2018-12-23T05:39:35.000Z,61.4
2018-12-23T05:40:25.102Z,61.4
2018-12-23T05:41:15.657Z,61.4
2018-12-23T05:42:04.907Z,61.4
2018-12-23T05:42:56.096Z,61.4
2018-12-23T05:43:45.582Z,61.4
2018-12-23T05:44:35.388Z,61.4
2018-12-23T05:45:25.695Z,61.3
2018-12-23T05:46:16.099Z,61.3
2018-12-23T05:47:06.022Z,61.3
2018-12-23T05:47:56.629Z,61.3
2018-12-23T05:48:45.859Z,61.3
2018-12-23T05:49:35.497Z,61.3
2018-12-23T05:50:25.724Z,61.3
2018-12-23T05:51:15.776Z,61.3
2018-12-23T05:52:06.166Z,61.3
2018-12-23T05:52:56.183Z,61.3
2018-12-23T05:53:45.952Z,61.3
2018-12-23T05:54:36.336Z,61.3
2018-12-23T05:55:26.356Z,61.3
2018-12-23T05:56:16.103Z,61.3
2018-12-23T05:57:06.170Z,61.3
2018-12-23T05:57:56.723Z,61.3
2018-12-23T05:58:46.354Z,61.2
2018-12-23T05:59:36.366Z,61.2
2018-12-23T06:00:26.132Z,61.2
2018-12-23T06:01:16.743Z,61.2
2018-12-23T06:02:06.559Z,61.2
2018-12-23T06:02:56.843Z,61.2
2018-12-23T06:03:46.971Z,61.2
2018-12-23T06:04:36.440Z,61.1
2018-12-23T06:05:27.002Z,61.2
2018-12-23T06:06:16.525Z,61.1
2018-12-23T06:07:07.411Z,61.1
2018-12-23T06:07:57.188Z,61.1
2018-12-23T06:08:47.228Z,61.1
2018-12-23T06:09:37.587Z,61.1
2018-12-23T06:10:26.913Z,61.1
2018-12-23T06:11:17.693Z,61.1
2018-12-23T06:12:07.196Z,61.1
2018-12-23T06:12:57.038Z,61.1
2018-12-23T06:13:47.850Z,61.1
2018-12-23T06:14:37.645Z,61.1
2018-12-23T06:15:27.142Z,61.1
2018-12-23T06:16:17.463Z,61.1
2018-12-23T06:17:08.077Z,61.1
2018-12-23T06:17:57.959Z,61.1
2018-12-23T06:18:48.342Z,61.1
2018-12-23T06:19:37.985Z,61.1
2018-12-23T06:20:28.044Z,61
2018-12-23T06:21:17.806Z,61
2018-12-23T06:22:07.594Z,61
2018-12-23T06:22:57.609Z,61
2018-12-23T06:23:48.549Z,61
2018-12-23T06:24:38.606Z,61
2018-12-23T06:25:28.782Z,61
2018-12-23T06:26:18.439Z,61
2018-12-23T06:27:08.481Z,61
2018-12-23T06:27:58.541Z,60.9
2018-12-23T06:28:50.801Z,60.9
2018-12-23T06:29:38.389Z,61
2018-12-23T06:30:28.999Z,60.9
2018-12-23T06:31:18.776Z,60.9
2018-12-23T06:32:09.094Z,60.9
2018-12-23T06:32:58.454Z,60.9
2018-12-23T06:33:48.931Z,60.9
2018-12-23T06:34:39.018Z,60.9
2018-12-23T06:35:29.077Z,60.9
2018-12-23T06:36:19.117Z,60.9
2018-12-23T06:37:14.868Z,60.9
2018-12-23T06:37:59.220Z,60.9
2018-12-23T06:38:49.545Z,60.9
2018-12-23T06:39:39.630Z,60.9
2018-12-23T06:40:29.800Z,60.9
2018-12-23T06:41:19.722Z,60.9
2018-12-23T06:42:09.512Z,60.9
2018-12-23T06:42:59.302Z,60.9
2018-12-23T06:43:49.752Z,60.9
2018-12-23T06:44:39.449Z,60.8
2018-12-23T06:45:29.743Z,60.8
2018-12-23T06:46:19.887Z,60.8
2018-12-23T06:47:09.960Z,60.8
2018-12-23T06:47:59.987Z,60.8
2018-12-23T06:48:50.246Z,60.8
2018-12-23T06:49:40.037Z,60.8
2018-12-23T06:50:30.608Z,60.8
2018-12-23T06:51:19.872Z,60.8
2018-12-23T06:52:10.189Z,60.8
2018-12-23T06:53:00.233Z,60.8
2018-12-23T06:53:50.304Z,60.8
2018-12-23T06:54:40.986Z,60.8
2018-12-23T06:55:30.179Z,60.8
2018-12-23T06:56:20.478Z,60.8
2018-12-23T06:57:10.892Z,60.8
2018-12-23T06:58:00.603Z,60.8
2018-12-23T06:58:50.336Z,60.7
2018-12-23T06:59:40.409Z,60.7
2018-12-23T07:00:30.744Z,60.7
2018-12-23T07:01:20.822Z,60.7
2018-12-23T07:02:10.436Z,60.7
2018-12-23T07:03:00.941Z,60.7
2018-12-23T07:03:50.979Z,60.6
2018-12-23T07:04:41.057Z,60.6
2018-12-23T07:05:31.234Z,60.7
2018-12-23T07:06:21.438Z,60.6
2018-12-23T07:07:19.815Z,60.6
2018-12-23T07:08:01.538Z,60.6
2018-12-23T07:08:51.578Z,60.6
2018-12-23T07:09:41.392Z,60.6
2018-12-23T07:10:31.494Z,60.6
2018-12-23T07:11:21.601Z,60.6
2018-12-23T07:12:11.826Z,60.6
2018-12-23T07:13:01.641Z,60.6
2018-12-23T07:13:51.655Z,60.6
2018-12-23T07:14:41.696Z,60.6
2018-12-23T07:15:32.124Z,60.6
2018-12-23T07:16:21.823Z,60.6
2018-12-23T07:17:12.163Z,60.6
2018-12-23T07:18:01.748Z,60.6
2018-12-23T07:18:52.016Z,60.5
2018-12-23T07:19:42.586Z,60.5
2018-12-23T07:20:31.888Z,60.5
2018-12-23T07:21:22.448Z,60.5
2018-12-23T07:22:11.963Z,60.5
2018-12-23T07:23:02.288Z,60.5
2018-12-23T07:23:52.615Z,60.5
2018-12-23T07:24:42.355Z,60.4
2018-12-23T07:25:32.506Z,60.5
2018-12-23T07:26:22.577Z,60.5
2018-12-23T07:27:12.380Z,60.4
2018-12-23T07:28:02.432Z,60.4
2018-12-23T07:28:52.681Z,60.4
2018-12-23T07:29:42.437Z,60.4
2018-12-23T07:30:33.162Z,60.4
2018-12-23T07:31:23.123Z,60.4
2018-12-23T07:32:12.722Z,60.4
2018-12-23T07:33:02.680Z,60.4
2018-12-23T07:33:52.542Z,60.4
2018-12-23T07:34:42.527Z,60.4
2018-12-23T07:35:33.629Z,60.4
2018-12-23T07:36:22.913Z,60.4
2018-12-23T07:37:13.242Z,60.4
2018-12-23T07:38:05.644Z,60.4
2018-12-23T07:38:53.362Z,60.4
2018-12-23T07:39:43.692Z,60.4
2018-12-23T07:40:32.943Z,60.3
2018-12-23T07:41:23.777Z,60.3
2018-12-23T07:42:13.301Z,60.3
2018-12-23T07:43:03.641Z,60.3
2018-12-23T07:43:53.982Z,60.3
2018-12-23T07:44:44.051Z,60.3
2018-12-23T07:45:33.814Z,60.3
2018-12-23T07:46:24.651Z,60.3
2018-12-23T07:47:13.929Z,60.3
2018-12-23T07:48:03.998Z,60.3
2018-12-23T07:48:54.039Z,60.3
2018-12-23T07:49:44.363Z,60.3
2018-12-23T07:50:34.256Z,60.3
2018-12-23T07:51:24.180Z,60.3
2018-12-23T07:52:14.276Z,60.3
2018-12-23T07:53:04.048Z,60.3
2018-12-23T07:53:54.383Z,60.3
2018-12-23T07:54:44.203Z,60.3
2018-12-23T07:55:34.220Z,60.3
2018-12-23T07:56:23.303Z,60.2
2018-12-23T07:57:14.318Z,60.2
2018-12-23T07:58:04.660Z,60.2
2018-12-23T07:58:54.154Z,60.2
2018-12-23T07:59:44.770Z,60.2
2018-12-23T08:00:34.837Z,60.2
2018-12-23T08:01:24.979Z,60.1
2018-12-23T08:02:14.990Z,60.1
2018-12-23T08:03:05.295Z,60.2
2018-12-23T08:03:55.333Z,60.2
2018-12-23T08:04:45.102Z,60.1
2018-12-23T08:05:35.165Z,60.1
2018-12-23T08:06:25.762Z,60.1
2018-12-23T08:07:14.802Z,60.1
2018-12-23T08:08:05.079Z,60.1
2018-12-23T08:08:55.395Z,60.1
2018-12-23T08:09:44.905Z,60.1
2018-12-23T08:10:35.028Z,60.1
2018-12-23T08:11:25.329Z,60.1
2018-12-23T08:12:15.139Z,60.1
2018-12-23T08:13:05.489Z,60.1
2018-12-23T08:13:55.471Z,60.1
2018-12-23T08:14:44.772Z,60.1
2018-12-23T08:15:35.369Z,60.1
2018-12-23T08:16:25.144Z,60.1
2018-12-23T08:17:15.696Z,60.1
2018-12-23T08:18:07.099Z,60.1
2018-12-23T08:18:55.884Z,60
2018-12-23T08:19:45.659Z,60
2018-12-23T08:20:35.706Z,60
2018-12-23T08:21:25.741Z,60
2018-12-23T08:22:15.824Z,60
2018-12-23T08:23:05.894Z,60
2018-12-23T08:23:56.706Z,60
2018-12-23T08:24:45.830Z,59.9
2018-12-23T08:25:39.859Z,60
2018-12-23T08:26:26.379Z,59.9
2018-12-23T08:27:15.603Z,59.9
2018-12-23T08:28:05.670Z,59.9
2018-12-23T08:28:56.088Z,59.9
2018-12-23T08:29:45.514Z,59.9
2018-12-23T08:30:36.668Z,59.9
2018-12-23T08:31:26.173Z,59.9
2018-12-23T08:32:16.819Z,59.9
2018-12-23T08:33:07.116Z,59.9
2018-12-23T08:33:55.795Z,59.9
2018-12-23T08:34:46.675Z,59.9
2018-12-23T08:35:37.038Z,59.9
2018-12-23T08:36:27.317Z,59.9
2018-12-23T08:37:17.133Z,59.9
2018-12-23T08:38:06.621Z,59.9
2018-12-23T08:38:56.958Z,59.9
2018-12-23T08:39:46.538Z,59.9
2018-12-23T08:40:37.660Z,59.9
2018-12-23T08:41:27.895Z,59.8
2018-12-23T08:42:17.922Z,59.8
2018-12-23T08:43:07.242Z,59.8
2018-12-23T08:43:57.744Z,59.8
2018-12-23T08:44:47.680Z,59.8
2018-12-23T08:45:37.340Z,59.8
2018-12-23T08:46:28.208Z,59.8
2018-12-23T08:47:17.487Z,59.8
2018-12-23T08:48:08.179Z,59.8
2018-12-23T08:48:58.137Z,59.8
2018-12-23T08:49:48.186Z,59.8
2018-12-23T08:50:38.214Z,59.8
2018-12-23T08:51:28.559Z,59.8
2018-12-23T08:52:18.369Z,59.8
2018-12-23T08:53:08.924Z,59.8
2018-12-23T08:53:57.912Z,59.8
2018-12-23T08:54:48.239Z,59.8
2018-12-23T08:55:38.279Z,59.8
2018-12-23T08:56:28.353Z,59.7
2018-12-23T08:57:18.468Z,59.7
2018-12-23T08:58:08.774Z,59.7
2018-12-23T08:58:58.797Z,59.7
2018-12-23T08:59:48.918Z,59.7
2018-12-23T09:00:38.911Z,59.7
2018-12-23T09:16:27.795Z,59.7
2018-12-23T09:17:18.158Z,59.7
2018-12-23T09:18:08.022Z,59.8
2018-12-23T09:18:57.983Z,59.8
2018-12-23T09:19:48.323Z,59.8
2018-12-23T09:20:38.372Z,59.9
2018-12-23T09:21:28.213Z,59.9
2018-12-23T09:22:19.725Z,59.9
2018-12-23T09:23:07.994Z,59.9
2018-12-23T09:23:58.800Z,59.9
2018-12-23T09:24:48.625Z,60
2018-12-23T09:25:37.887Z,60.1
2018-12-23T09:26:29.027Z,60.1
2018-12-23T09:27:18.540Z,60.1
2018-12-23T09:28:10.921Z,60.2
2018-12-23T09:28:58.743Z,60.2
2018-12-23T09:29:49.009Z,60.3
2018-12-23T09:30:38.237Z,60.3
2018-12-23T09:31:29.343Z,60.3
2018-12-23T09:32:19.174Z,60.3
2018-12-23T09:33:09.229Z,60.3
2018-12-23T09:33:59.401Z,60.3
2018-12-23T09:34:49.349Z,60.3
2018-12-23T09:35:39.124Z,60.3
2018-12-23T09:36:29.189Z,60.3
2018-12-23T09:37:18.702Z,60.3
2018-12-23T09:38:09.316Z,60.3
2018-12-23T09:38:59.079Z,60.3
2018-12-23T09:39:49.436Z,60.3
2018-12-23T09:40:39.281Z,60.3
2018-12-23T09:41:30.109Z,60.3
2018-12-23T09:42:20.121Z,60.3
2018-12-23T09:43:09.103Z,60.3
2018-12-23T09:43:59.999Z,60.3
2018-12-23T09:44:50.534Z,60.3
2018-12-23T09:45:39.631Z,60.3
2018-12-23T09:46:30.706Z,60.3
2018-12-23T09:47:20.123Z,60.3
2018-12-23T09:48:10.207Z,60.3
2018-12-23T09:49:00.818Z,60.3
2018-12-23T09:49:50.616Z,60.3
2018-12-23T09:50:40.375Z,60.3
2018-12-23T09:51:30.508Z,60.3
2018-12-23T09:52:20.295Z,60.3
2018-12-23T09:53:10.943Z,60.3
2018-12-23T09:54:00.673Z,60.4
2018-12-23T09:54:51.252Z,60.4
2018-12-23T09:55:40.988Z,60.4
2018-12-23T09:56:31.266Z,60.5
2018-12-23T09:57:20.920Z,60.5
2018-12-23T09:58:11.485Z,60.6
2018-12-23T09:59:01.200Z,60.6
2018-12-23T09:59:51.027Z,60.6
2018-12-23T10:00:40.807Z,60.7
2018-12-23T10:01:32.037Z,60.7
2018-12-23T10:02:21.772Z,60.8
2018-12-23T10:03:11.582Z,60.9
2018-12-23T10:04:01.089Z,60.9
2018-12-23T10:04:51.720Z,60.9
2018-12-23T10:05:41.239Z,60.9
2018-12-23T10:06:31.757Z,60.9
2018-12-23T10:07:21.827Z,60.9
2018-12-23T10:08:15.215Z,61
2018-12-23T10:09:01.707Z,61
2018-12-23T10:09:51.702Z,61
2018-12-23T10:10:42.044Z,61
2018-12-23T10:11:31.949Z,61
2018-12-23T10:12:21.885Z,61
2018-12-23T10:13:11.803Z,61
2018-12-23T10:14:02.262Z,61
2018-12-23T10:14:52.064Z,61
2018-12-23T10:15:42.129Z,61
2018-12-23T10:16:32.739Z,61
2018-12-23T10:17:22.291Z,61
2018-12-23T10:18:12.839Z,61
2018-12-23T10:19:01.651Z,61
2018-12-23T10:19:52.407Z,61
2018-12-23T10:20:42.737Z,61
2018-12-23T10:21:32.524Z,61
2018-12-23T10:22:22.539Z,61
2018-12-23T10:23:12.704Z,61
2018-12-23T10:24:03.258Z,61
2018-12-23T10:24:53.036Z,61
2018-12-23T10:25:42.897Z,60.9
2018-12-23T10:26:32.879Z,60.9
2018-12-23T10:27:22.454Z,60.9
2018-12-23T10:28:13.309Z,60.9
2018-12-23T10:29:03.213Z,60.9
2018-12-23T10:29:52.619Z,60.9
2018-12-23T10:30:42.677Z,60.9
2018-12-23T10:31:32.746Z,60.9
2018-12-23T10:32:22.538Z,60.9
2018-12-23T10:33:13.136Z,60.9
2018-12-23T10:34:02.364Z,60.9
2018-12-23T10:34:53.260Z,60.9
2018-12-23T10:35:43.051Z,60.9
2018-12-23T10:36:33.086Z,60.9
2018-12-23T10:37:23.527Z,60.9
2018-12-23T10:38:22.373Z,60.9
2018-12-23T10:39:03.347Z,60.9
2018-12-23T10:39:53.333Z,60.9
2018-12-23T10:40:43.453Z,60.9
2018-12-23T10:41:33.425Z,60.9
2018-12-23T10:42:24.198Z,60.9
2018-12-23T10:43:13.946Z,60.9
2018-12-23T10:44:03.626Z,60.9
2018-12-23T10:44:54.234Z,60.9
2018-12-23T10:45:43.460Z,60.9
2018-12-23T10:46:34.340Z,60.9
2018-12-23T10:47:23.843Z,60.8
2018-12-23T10:48:14.368Z,60.8
2018-12-23T10:49:04.347Z,60.8
2018-12-23T10:49:54.861Z,60.8
2018-12-23T10:50:44.675Z,60.8
2018-12-23T10:51:34.340Z,60.8
2018-12-23T10:52:24.207Z,60.8
2018-12-23T10:53:15.282Z,60.8
2018-12-23T10:54:04.369Z,60.8
2018-12-23T10:54:54.854Z,60.8
2018-12-23T10:55:45.014Z,60.8
2018-12-23T10:56:35.277Z,60.8
2018-12-23T10:57:25.595Z,60.8
2018-12-23T10:58:15.364Z,60.8
2018-12-23T10:59:05.429Z,60.8
2018-12-23T10:59:54.534Z,60.8
2018-12-23T11:00:45.534Z,60.8
2018-12-23T11:01:35.714Z,60.8
2018-12-23T11:02:25.909Z,60.8
2018-12-23T11:03:15.713Z,60.8
2018-12-23T11:04:05.838Z,60.7
2018-12-23T11:04:55.845Z,60.7
2018-12-23T11:05:45.865Z,60.7
2018-12-23T11:06:36.226Z,60.7
2018-12-23T11:07:25.991Z,60.7
2018-12-23T11:08:15.786Z,60.7
2018-12-23T11:09:06.201Z,60.7
2018-12-23T11:10:05.094Z,60.7
2018-12-23T11:10:46.234Z,60.7
2018-12-23T11:11:36.578Z,60.6
2018-12-23T11:12:26.637Z,60.7
2018-12-23T11:13:16.123Z,60.6
2018-12-23T11:14:06.218Z,60.6
2018-12-23T11:14:56.271Z,60.6
2018-12-23T11:15:47.186Z,60.6
2018-12-23T11:16:36.447Z,60.6
2018-12-23T11:17:26.448Z,60.6
2018-12-23T11:18:16.760Z,60.6
2018-12-23T11:19:06.526Z,60.7
2018-12-23T11:19:56.863Z,60.7
2018-12-23T11:20:46.675Z,60.7
2018-12-23T11:21:39.248Z,60.7
2018-12-23T11:22:26.061Z,60.7
2018-12-23T11:23:17.095Z,60.8
2018-12-23T11:24:07.412Z,60.8
2018-12-23T11:24:57.228Z,60.8
2018-12-23T11:25:47.630Z,60.8
2018-12-23T11:26:37.355Z,60.8
2018-12-23T11:27:26.908Z,60.9
2018-12-23T11:28:17.732Z,60.9
2018-12-23T11:29:07.235Z,60.9
2018-12-23T11:29:57.610Z,60.9
2018-12-23T11:30:47.424Z,61
2018-12-23T11:31:37.472Z,61
2018-12-23T11:32:27.739Z,61
2018-12-23T11:33:17.842Z,61.1
2018-12-23T11:34:08.194Z,61.1
2018-12-23T11:34:58.232Z,61.1
2018-12-23T11:35:47.171Z,61.1
2018-12-23T11:36:37.735Z,61.2
2018-12-23T11:37:27.820Z,61.3
2018-12-23T11:38:19.849Z,61.3
2018-12-23T11:39:08.008Z,61.3
2018-12-23T11:39:58.276Z,61.3
2018-12-23T11:40:48.046Z,61.4
2018-12-23T11:41:38.574Z,61.4
2018-12-23T11:42:28.282Z,61.5
2018-12-23T11:43:18.214Z,61.5
2018-12-23T11:44:08.096Z,61.6
2018-12-23T11:44:58.619Z,61.6
2018-12-23T11:45:47.856Z,61.6
2018-12-23T11:46:38.551Z,61.7
2018-12-23T11:47:28.576Z,61.7
2018-12-23T11:48:19.135Z,61.7
2018-12-23T11:49:08.975Z,61.8
2018-12-23T11:49:59.230Z,61.8
2018-12-23T11:50:48.748Z,61.8
2018-12-23T11:51:39.095Z,61.8
2018-12-23T11:52:28.598Z,61.9
2018-12-23T11:53:19.198Z,61.9
2018-12-23T11:54:08.485Z,61.9
2018-12-23T11:54:59.147Z,61.9
2018-12-23T11:55:49.383Z,62
2018-12-23T11:56:39.451Z,62
2018-12-23T11:57:29.218Z,62
2018-12-23T11:58:19.845Z,62
2018-12-23T11:59:09.667Z,62
2018-12-23T11:59:59.671Z,62
2018-12-23T12:00:50.092Z,62
2018-12-23T12:01:40.089Z,62
2018-12-23T12:02:29.570Z,62
2018-12-23T12:03:19.910Z,62
2018-12-23T12:04:09.965Z,62
2018-12-23T12:04:59.470Z,62
2018-12-23T12:05:50.373Z,62
2018-12-23T12:06:40.150Z,62
2018-12-23T12:07:30.194Z,62
2018-12-23T12:08:20.547Z,62
2018-12-23T12:09:11.275Z,62
2018-12-23T12:10:00.757Z,62.1
2018-12-23T12:10:50.396Z,62.1
2018-12-23T12:11:39.952Z,62.1
2018-12-23T12:12:30.809Z,62.1
2018-12-23T12:13:20.989Z,62.1
2018-12-23T12:14:09.919Z,62.1
2018-12-23T12:15:00.283Z,62.1
2018-12-23T12:15:51.024Z,62.1
2018-12-23T12:16:41.108Z,62.1
2018-12-23T12:17:30.667Z,62.1
2018-12-23T12:18:20.787Z,62.1
2018-12-23T12:19:11.329Z,62.2
2018-12-23T12:20:01.261Z,62.2
2018-12-23T12:20:51.441Z,62.1
2018-12-23T12:21:41.474Z,62.1
2018-12-23T12:22:31.357Z,62.1
2018-12-23T12:23:21.312Z,62.1
2018-12-23T12:24:11.092Z,62.1
2018-12-23T12:25:00.894Z,62.1
2018-12-23T12:25:50.929Z,62.1
2018-12-23T12:26:40.989Z,62.1
2018-12-23T12:27:31.616Z,62.1
2018-12-23T12:28:21.921Z,62.1
2018-12-23T12:29:13.404Z,62.1
2018-12-23T12:30:02.301Z,62.1
2018-12-23T12:30:51.535Z,62.1
2018-12-23T12:31:41.348Z,62.1
2018-12-23T12:32:31.664Z,62.1
2018-12-23T12:33:22.021Z,62.1
2018-12-23T12:34:11.781Z,62.1
2018-12-23T12:35:03.272Z,62.1
2018-12-23T12:35:52.720Z,62.1
2018-12-23T12:36:41.469Z,62.1
2018-12-23T12:37:32.019Z,62.1
2018-12-23T12:38:22.078Z,62.1
2018-12-23T12:39:12.137Z,62.1
2018-12-23T12:40:02.528Z,62.1
2018-12-23T12:40:55.082Z,62.1
2018-12-23T12:41:42.598Z,62.1
2018-12-23T12:42:32.703Z,62.1
2018-12-23T12:43:21.848Z,62.1
2018-12-23T12:44:12.484Z,62.1
2018-12-23T12:45:02.985Z,62.1
2018-12-23T12:46:01.469Z,62.1
2018-12-23T12:46:42.936Z,62.1
2018-12-23T12:47:33.023Z,62
2018-12-23T12:48:23.045Z,62
2018-12-23T12:49:13.380Z,62
2018-12-23T12:50:03.005Z,62
2018-12-23T12:50:53.228Z,62
2018-12-23T12:51:43.246Z,62
2018-12-23T12:52:33.182Z,62
2018-12-23T12:53:23.696Z,62
2018-12-23T12:54:13.468Z,62
2018-12-23T12:55:03.885Z,62
2018-12-23T12:55:53.588Z,61.9
2018-12-23T12:56:43.665Z,62
2018-12-23T12:57:33.694Z,61.9
2018-12-23T12:58:24.176Z,61.9
2018-12-23T12:59:14.073Z,61.9
2018-12-23T13:00:03.867Z,61.9
2018-12-23T13:00:53.424Z,61.9
2018-12-23T13:01:44.115Z,61.9
2018-12-23T13:02:33.883Z,61.9
2018-12-23T13:03:23.549Z,61.9
2018-12-23T13:04:13.887Z,61.9
2018-12-23T13:05:04.500Z,61.9
2018-12-23T13:05:54.278Z,61.9
2018-12-23T13:06:44.665Z,61.9
2018-12-23T13:07:34.708Z,61.9
2018-12-23T13:08:23.892Z,61.9
2018-12-23T13:09:14.017Z,61.9
2018-12-23T13:10:04.801Z,61.9
2018-12-23T13:10:54.196Z,61.9
2018-12-23T13:11:43.642Z,61.8
2018-12-23T13:12:34.818Z,61.8
2018-12-23T13:13:24.344Z,61.8
2018-12-23T13:14:14.097Z,61.8
2018-12-23T13:15:04.667Z,61.8
2018-12-23T13:15:55.288Z,61.8
2018-12-23T13:16:45.014Z,61.8
2018-12-23T13:17:34.544Z,61.8
2018-12-23T13:18:25.435Z,61.8
2018-12-23T13:19:15.007Z,61.8
2018-12-23T13:20:05.004Z,61.8
2018-12-23T13:20:55.642Z,61.8
2018-12-23T13:21:45.099Z,61.8
2018-12-23T13:22:35.761Z,61.8
2018-12-23T13:23:26.091Z,61.8
2018-12-23T13:24:14.791Z,61.8
2018-12-23T13:25:05.161Z,61.8
2018-12-23T13:25:55.946Z,61.8
2018-12-23T13:26:45.161Z,61.8
2018-12-23T13:27:36.018Z,61.8
2018-12-23T13:28:25.149Z,61.7
2018-12-23T13:29:15.137Z,61.7
2018-12-23T13:30:05.491Z,61.7
2018-12-23T13:30:55.191Z,61.7
2018-12-23T13:31:46.653Z,61.7
2018-12-23T13:32:35.394Z,61.7
2018-12-23T13:33:26.030Z,61.7
2018-12-23T13:34:16.045Z,61.7
2018-12-23T13:35:05.652Z,61.7
2018-12-23T13:35:55.611Z,61.6
2018-12-23T13:36:46.275Z,61.6
2018-12-23T13:37:35.981Z,61.7
2018-12-23T13:38:26.284Z,61.6
2018-12-23T13:39:15.840Z,61.6
2018-12-23T13:40:06.183Z,61.6
2018-12-23T13:40:55.682Z,61.6
2018-12-23T13:41:48.925Z,61.6
2018-12-23T13:42:36.072Z,61.6
2018-12-23T13:43:25.577Z,61.6
2018-12-23T13:44:16.742Z,61.6
2018-12-23T13:45:06.794Z,61.6
2018-12-23T13:45:56.012Z,61.6
2018-12-23T13:46:46.412Z,61.6
2018-12-23T13:47:36.407Z,61.6
2018-12-23T13:48:26.736Z,61.6
2018-12-23T13:49:16.077Z,61.6
2018-12-23T13:50:06.052Z,61.6
2018-12-23T13:50:56.909Z,61.6
2018-12-23T13:51:47.029Z,61.6
2018-12-23T13:52:36.859Z,61.6
2018-12-23T13:53:27.209Z,61.5
2018-12-23T13:54:19.224Z,61.5
2018-12-23T13:55:07.003Z,61.5
2018-12-23T13:55:57.552Z,61.5
2018-12-23T13:56:47.313Z,61.5
2018-12-23T13:57:37.638Z,61.5
2018-12-23T13:58:27.166Z,61.5
2018-12-23T14:15:22.735Z,61.3
2018-12-23T14:16:12.956Z,61.3
2018-12-23T14:17:03.180Z,61.3
2018-12-23T14:17:52.087Z,61.3
2018-12-23T14:18:57.272Z,61.3
2018-12-23T14:19:32.693Z,61.3
2018-12-23T14:20:23.469Z,61.3
2018-12-23T14:21:13.004Z,61.3
2018-12-23T14:22:03.058Z,61.3
2018-12-23T14:22:53.945Z,61.3
2018-12-23T14:23:43.427Z,61.3
2018-12-23T14:24:47.599Z,61.3
2018-12-23T14:25:23.275Z,61.3
2018-12-23T14:26:14.149Z,61.3
2018-12-23T14:27:03.659Z,61.3
2018-12-23T14:27:53.434Z,61.3
2018-12-23T14:28:44.064Z,61.2
2018-12-23T14:29:34.166Z,61.2
2018-12-23T14:30:23.919Z,61.2
2018-12-23T14:31:13.962Z,61.2
2018-12-23T14:32:04.289Z,61.2
2018-12-23T14:32:53.518Z,61.2
2018-12-23T14:33:44.836Z,61.2
2018-12-23T14:34:34.182Z,61.2
2018-12-23T14:35:24.186Z,61.2
2018-12-23T14:36:14.543Z,61.2
2018-12-23T14:37:04.553Z,61.1
2018-12-23T14:37:54.403Z,61.2
2018-12-23T14:38:44.461Z,61.1
2018-12-23T14:40:06.627Z,61.1
2018-12-23T14:40:24.022Z,61.1
2018-12-23T14:41:14.018Z,61.1
2018-12-23T14:42:04.211Z,61.1
2018-12-23T14:42:54.656Z,61.1
2018-12-23T14:43:45.088Z,61.1
2018-12-23T14:44:34.575Z,61.1
2018-12-23T14:45:24.913Z,61.1
2018-12-23T14:46:15.054Z,61.1
2018-12-23T14:47:19.663Z,61.1
2018-12-23T14:47:55.348Z,61.1
2018-12-23T14:48:44.846Z,61.1
2018-12-23T14:49:35.408Z,61.1
2018-12-23T14:50:25.330Z,61.1
2018-12-23T14:51:15.341Z,61.1
2018-12-23T14:52:20.505Z,61.1
2018-12-23T14:52:54.851Z,61
2018-12-23T14:53:45.478Z,61
2018-12-23T14:54:34.966Z,61
2018-12-23T14:55:25.570Z,61
2018-12-23T14:56:15.675Z,61
2018-12-23T14:57:05.433Z,61
2018-12-23T14:57:55.221Z,61
2018-12-23T14:58:46.134Z,61
2018-12-23T14:59:49.820Z,61
2018-12-23T15:00:26.450Z,60.9
2018-12-23T15:01:16.262Z,60.9
2018-12-23T15:02:06.590Z,60.9
2018-12-23T15:02:56.085Z,60.9
2018-12-23T15:03:45.319Z,60.9
2018-12-23T15:04:36.102Z,60.9
2018-12-23T15:05:26.315Z,60.9
2018-12-23T15:06:16.305Z,60.9
2018-12-23T15:07:07.000Z,60.9
2018-12-23T15:07:55.830Z,60.9
2018-12-23T15:08:46.587Z,60.9
2018-12-23T15:09:38.739Z,60.9
2018-12-23T15:10:26.314Z,60.9
2018-12-23T15:11:16.927Z,60.9
2018-12-23T15:12:07.039Z,60.8
2018-12-23T15:13:11.140Z,60.9
2018-12-23T15:13:47.285Z,60.8
2018-12-23T15:14:51.508Z,60.8
2018-12-23T15:15:27.375Z,60.8
2018-12-23T15:16:17.517Z,60.8
2018-12-23T15:17:21.542Z,60.8
2018-12-23T15:17:56.919Z,60.8
2018-12-23T15:18:46.899Z,60.8
2018-12-23T15:19:36.953Z,60.8
2018-12-23T15:20:26.997Z,60.8
2018-12-23T15:21:17.061Z,60.8
2018-12-23T15:22:07.701Z,60.8
2018-12-23T15:22:57.456Z,60.8
2018-12-23T15:23:48.254Z,60.8
2018-12-23T15:24:37.869Z,60.8
2018-12-23T15:25:27.634Z,60.8
2018-12-23T15:26:17.921Z,60.7
2018-12-23T15:27:07.716Z,60.8
2018-12-23T15:27:57.532Z,60.8
2018-12-23T15:28:47.855Z,60.7
2018-12-23T15:29:37.664Z,60.7
2018-12-23T15:30:27.976Z,60.7
2018-12-23T15:31:32.625Z,60.7
2018-12-23T15:32:08.166Z,60.7
2018-12-23T15:32:58.651Z,60.7
2018-12-23T15:33:48.427Z,60.7
2018-12-23T15:34:38.271Z,60.6
2018-12-23T15:35:28.040Z,60.6
2018-12-23T15:36:18.092Z,60.6
2018-12-23T15:37:08.410Z,60.6
2018-12-23T15:37:58.657Z,60.6
2018-12-23T15:38:48.529Z,60.6
2018-12-23T15:39:46.409Z,60.6
2018-12-23T15:40:28.489Z,60.6
2018-12-23T15:41:18.711Z,60.6
2018-12-23T15:42:09.039Z,60.6
2018-12-23T15:42:58.847Z,60.6
2018-12-23T15:43:49.316Z,60.6
2018-12-23T15:44:39.039Z,60.6
2018-12-23T15:45:29.576Z,60.6
2018-12-23T15:46:18.894Z,60.6
2018-12-23T15:47:08.541Z,60.6
2018-12-23T15:47:59.659Z,60.6
2018-12-23T15:48:49.723Z,60.6
2018-12-23T15:49:39.554Z,60.6
2018-12-23T15:51:22.042Z,60.5
2018-12-23T15:52:09.976Z,60.5
2018-12-23T15:53:00.058Z,60.5
2018-12-23T15:53:49.870Z,60.5
2018-12-23T15:54:48.428Z,60.5
2018-12-23T15:55:29.707Z,60.5
2018-12-23T15:56:19.813Z,60.5
2018-12-23T15:57:09.788Z,60.5
2018-12-23T15:58:00.700Z,60.4
2018-12-23T15:59:04.675Z,60.4
2018-12-23T15:59:39.943Z,60.4
2018-12-23T16:00:30.175Z,60.4
2018-12-23T16:01:34.402Z,60.4
2018-12-23T16:02:09.860Z,60.4
2018-12-23T16:02:59.908Z,60.4
2018-12-23T16:03:50.505Z,60.4
2018-12-23T16:04:40.295Z,60.4
2018-12-23T16:05:30.663Z,60.4
2018-12-23T16:06:20.413Z,60.4
2018-12-23T16:07:10.840Z,60.4
2018-12-23T16:08:00.662Z,60.4
2018-12-23T16:08:50.768Z,60.4
2018-12-23T16:10:30.728Z,60.4
2018-12-23T16:11:21.235Z,60.4
2018-12-23T16:12:11.122Z,60.3
2018-12-23T16:13:15.797Z,60.3
2018-12-23T16:13:51.480Z,60.3
2018-12-23T16:14:41.887Z,60.3
2018-12-23T16:15:31.789Z,60.3
2018-12-23T16:16:20.257Z,60.3
2018-12-23T16:17:10.429Z,60.3
2018-12-23T16:18:01.199Z,60.3
2018-12-23T16:18:50.979Z,60.3
2018-12-23T16:19:41.599Z,60.3
2018-12-23T16:20:31.097Z,60.3
2018-12-23T16:21:21.657Z,60.3
2018-12-23T16:22:11.521Z,60.3
2018-12-23T16:23:01.804Z,60.3
2018-12-23T16:24:06.531Z,60.3
2018-12-23T16:24:42.703Z,60.3
2018-12-23T16:25:31.416Z,60.3
2018-12-23T16:26:22.457Z,60.2
2018-12-23T16:27:12.598Z,60.2
2018-12-23T16:28:02.441Z,60.2
2018-12-23T16:29:23.879Z,60.2
2018-12-23T16:29:41.974Z,60.2
2018-12-23T16:30:31.547Z,60.2
2018-12-23T16:31:21.814Z,60.2
2018-12-23T16:32:11.538Z,60.2
2018-12-23T16:33:02.626Z,60.2
2018-12-23T16:33:51.798Z,60.1
2018-12-23T16:34:42.994Z,60.1
2018-12-23T16:35:32.376Z,60.1
2018-12-23T16:36:21.886Z,60.1
2018-12-23T16:37:12.826Z,60.1
2018-12-23T16:38:02.318Z,60.1
2018-12-23T16:38:53.105Z,60.1
2018-12-23T16:39:42.647Z,60.1
2018-12-23T16:40:32.708Z,60.1